Prichard, Idaho
Current Conditions -  °F | °C
As of 3:42 PM on Saturday 22 Nov 2014 (Local Time) from KMLP Reporting Station
Light Snow Light Snow  
Wind Chill: 16°   Ceiling: 900
Heat Index: 24°   Visibility: 10mi
Dew Point: 22°   Wind: 7mph
Humidity: 91%   Direction: NA
Pressure: 29.65"   Gusts: 16mph
Location:  47.1697°N, 115.775°W
Report Text: KMLP 222342Z AUTO VRB06G14KT 10SM -SN BKN009 OVC015 M04/M06 A2965 RMK AO2 UPB35E40SNB34E35B40 CIG 007V012 P0000 T10441056
Loading
Personal Weather Stations






























Interactive Weather Map New forecast layout! Learn more

10-Day Weather Forecast

Advertisements
Track Severe Weather on mobile